sensor_id;sensor_type;location;lat;lon;timestamp;P1;durP1;ratioP1;P2;durP2;ratioP2
66669;SDS011;53568;52.164;4.472;2023-07-28T00:01:18;4.57;;;4.57;;
66669;SDS011;53568;52.164;4.472;2023-07-28T00:03:43;4.34;;;4.34;;
66669;SDS011;53568;52.164;4.472;2023-07-28T00:06:09;4.38;;;4.38;;
66669;SDS011;53568;52.164;4.472;2023-07-28T00:08:34;4.39;;;4.39;;
66669;SDS011;53568;52.164;4.472;2023-07-28T00:11:00;4.69;;;4.69;;
66669;SDS011;53568;52.164;4.472;2023-07-28T00:13:25;4.50;;;4.50;;
66669;SDS011;53568;52.164;4.472;2023-07-28T00:15:51;4.70;;;4.70;;
66669;SDS011;53568;52.164;4.472;2023-07-28T00:18:16;4.73;;;4.73;;
66669;SDS011;53568;52.164;4.472;2023-07-28T00:20:43;4.89;;;4.89;;
66669;SDS011;53568;52.164;4.472;2023-07-28T00:23:09;4.87;;;4.86;;
66669;SDS011;53568;52.164;4.472;2023-07-28T00:25:34;4.40;;;4.40;;
66669;SDS011;53568;52.164;4.472;2023-07-28T00:28:00;4.37;;;4.37;;
66669;SDS011;53568;52.164;4.472;2023-07-28T00:30:25;4.61;;;4.61;;
66669;SDS011;53568;52.164;4.472;2023-07-28T00:32:51;4.56;;;4.56;;
66669;SDS011;53568;52.164;4.472;2023-07-28T00:35:17;5.05;;;5.02;;
66669;SDS011;53568;52.164;4.472;2023-07-28T00:37:42;5.04;;;5.01;;
66669;SDS011;53568;52.164;4.472;2023-07-28T00:40:08;5.13;;;5.06;;
66669;SDS011;53568;52.164;4.472;2023-07-28T00:42:34;5.63;;;5.53;;
66669;SDS011;53568;52.164;4.472;2023-07-28T00:44:59;5.09;;;5.05;;
66669;SDS011;53568;52.164;4.472;2023-07-28T00:47:25;5.36;;;5.33;;
66669;SDS011;53568;52.164;4.472;2023-07-28T00:49:50;5.72;;;5.70;;
66669;SDS011;53568;52.164;4.472;2023-07-28T00:52:16;5.42;;;5.41;;
66669;SDS011;53568;52.164;4.472;2023-07-28T00:54:41;5.70;;;5.56;;
66669;SDS011;53568;52.164;4.472;2023-07-28T00:57:07;6.20;;;6.03;;
66669;SDS011;53568;52.164;4.472;2023-07-28T00:59:32;5.47;;;5.40;;
66669;SDS011;53568;52.164;4.472;2023-07-28T01:01:58;5.66;;;5.60;;
66669;SDS011;53568;52.164;4.472;2023-07-28T01:04:24;5.72;;;5.72;;
66669;SDS011;53568;52.164;4.472;2023-07-28T01:09:29;5.73;;;5.73;;
66669;SDS011;53568;52.164;4.472;2023-07-28T01:12:06;6.24;;;6.24;;
66669;SDS011;53568;52.164;4.472;2023-07-28T01:14:33;6.12;;;6.12;;
66669;SDS011;53568;52.164;4.472;2023-07-28T01:16:59;5.81;;;5.81;;
66669;SDS011;53568;52.164;4.472;2023-07-28T01:19:27;6.05;;;6.04;;
66669;SDS011;53568;52.164;4.472;2023-07-28T01:21:53;5.97;;;5.97;;
66669;SDS011;53568;52.164;4.472;2023-07-28T01:27:35;6.14;;;6.14;;
66669;SDS011;53568;52.164;4.472;2023-07-28T01:30:03;6.33;;;6.28;;
66669;SDS011;53568;52.164;4.472;2023-07-28T01:32:28;6.31;;;6.18;;
66669;SDS011;53568;52.164;4.472;2023-07-28T01:34:54;6.65;;;6.57;;
66669;SDS011;53568;52.164;4.472;2023-07-28T01:37:20;6.02;;;6.01;;
66669;SDS011;53568;52.164;4.472;2023-07-28T01:39:45;6.22;;;6.22;;
66669;SDS011;53568;52.164;4.472;2023-07-28T01:42:11;5.93;;;5.92;;
66669;SDS011;53568;52.164;4.472;2023-07-28T01:44:36;6.38;;;6.38;;
66669;SDS011;53568;52.164;4.472;2023-07-28T01:47:02;6.30;;;6.30;;
66669;SDS011;53568;52.164;4.472;2023-07-28T01:49:28;6.24;;;6.24;;
66669;SDS011;53568;52.164;4.472;2023-07-28T01:51:53;6.16;;;6.14;;
66669;SDS011;53568;52.164;4.472;2023-07-28T01:54:21;6.03;;;6.02;;
66669;SDS011;53568;52.164;4.472;2023-07-28T01:56:46;5.98;;;5.97;;
66669;SDS011;53568;52.164;4.472;2023-07-28T01:59:12;6.07;;;5.99;;
66669;SDS011;53568;52.164;4.472;2023-07-28T02:01:39;5.91;;;5.82;;
66669;SDS011;53568;52.164;4.472;2023-07-28T02:04:05;6.01;;;5.97;;
66669;SDS011;53568;52.164;4.472;2023-07-28T02:06:31;5.81;;;5.75;;
66669;SDS011;53568;52.164;4.472;2023-07-28T02:08:57;5.92;;;5.91;;
66669;SDS011;53568;52.164;4.472;2023-07-28T02:11:22;6.06;;;6.02;;
66669;SDS011;53568;52.164;4.472;2023-07-28T02:13:48;6.34;;;6.25;;
66669;SDS011;53568;52.164;4.472;2023-07-28T02:16:13;6.07;;;6.05;;
66669;SDS011;53568;52.164;4.472;2023-07-28T02:18:38;6.27;;;6.16;;
66669;SDS011;53568;52.164;4.472;2023-07-28T02:21:04;6.05;;;5.97;;
66669;SDS011;53568;52.164;4.472;2023-07-28T02:23:29;6.41;;;6.30;;
66669;SDS011;53568;52.164;4.472;2023-07-28T02:25:55;6.72;;;6.55;;
66669;SDS011;53568;52.164;4.472;2023-07-28T02:28:20;6.45;;;6.40;;
66669;SDS011;53568;52.164;4.472;2023-07-28T02:30:46;6.75;;;6.61;;
66669;SDS011;53568;52.164;4.472;2023-07-28T02:33:11;6.81;;;6.75;;
66669;SDS011;53568;52.164;4.472;2023-07-28T02:35:37;6.69;;;6.47;;
66669;SDS011;53568;52.164;4.472;2023-07-28T02:38:02;6.40;;;6.31;;
66669;SDS011;53568;52.164;4.472;2023-07-28T02:40:28;6.13;;;6.08;;
66669;SDS011;53568;52.164;4.472;2023-07-28T02:42:53;6.08;;;5.94;;
66669;SDS011;53568;52.164;4.472;2023-07-28T02:45:19;5.77;;;5.76;;
66669;SDS011;53568;52.164;4.472;2023-07-28T02:47:45;6.04;;;6.04;;
66669;SDS011;53568;52.164;4.472;2023-07-28T02:50:10;5.52;;;5.51;;
66669;SDS011;53568;52.164;4.472;2023-07-28T02:52:36;5.19;;;5.19;;
66669;SDS011;53568;52.164;4.472;2023-07-28T02:55:01;4.95;;;4.90;;
66669;SDS011;53568;52.164;4.472;2023-07-28T02:57:27;5.38;;;5.37;;
66669;SDS011;53568;52.164;4.472;2023-07-28T02:59:52;6.02;;;6.01;;
66669;SDS011;53568;52.164;4.472;2023-07-28T03:02:18;5.89;;;5.89;;
66669;SDS011;53568;52.164;4.472;2023-07-28T03:04:43;6.14;;;6.12;;
66669;SDS011;53568;52.164;4.472;2023-07-28T03:07:09;5.98;;;5.98;;
66669;SDS011;53568;52.164;4.472;2023-07-28T03:09:34;6.50;;;6.39;;
66669;SDS011;53568;52.164;4.472;2023-07-28T03:12:00;7.04;;;6.90;;
66669;SDS011;53568;52.164;4.472;2023-07-28T03:14:25;6.89;;;6.82;;
66669;SDS011;53568;52.164;4.472;2023-07-28T03:16:51;7.15;;;7.07;;
66669;SDS011;53568;52.164;4.472;2023-07-28T03:19:17;7.20;;;7.19;;
66669;SDS011;53568;52.164;4.472;2023-07-28T03:21:42;7.36;;;7.32;;
66669;SDS011;53568;52.164;4.472;2023-07-28T03:24:08;7.30;;;7.24;;
66669;SDS011;53568;52.164;4.472;2023-07-28T03:26:34;7.06;;;7.01;;
66669;SDS011;53568;52.164;4.472;2023-07-28T03:28:59;7.15;;;7.03;;
66669;SDS011;53568;52.164;4.472;2023-07-28T03:31:25;7.30;;;7.20;;
66669;SDS011;53568;52.164;4.472;2023-07-28T03:33:50;7.24;;;7.12;;
66669;SDS011;53568;52.164;4.472;2023-07-28T03:36:16;7.39;;;7.24;;
66669;SDS011;53568;52.164;4.472;2023-07-28T03:38:41;7.49;;;7.30;;
66669;SDS011;53568;52.164;4.472;2023-07-28T03:41:07;7.36;;;7.22;;
66669;SDS011;53568;52.164;4.472;2023-07-28T03:43:33;7.64;;;7.49;;
66669;SDS011;53568;52.164;4.472;2023-07-28T03:45:59;7.39;;;7.26;;
66669;SDS011;53568;52.164;4.472;2023-07-28T03:48:24;7.00;;;6.91;;
66669;SDS011;53568;52.164;4.472;2023-07-28T03:50:50;7.24;;;7.12;;
66669;SDS011;53568;52.164;4.472;2023-07-28T03:53:15;7.57;;;7.41;;
66669;SDS011;53568;52.164;4.472;2023-07-28T03:55:41;6.87;;;6.81;;
66669;SDS011;53568;52.164;4.472;2023-07-28T03:58:06;7.29;;;7.25;;
66669;SDS011;53568;52.164;4.472;2023-07-28T04:00:32;7.28;;;7.09;;
66669;SDS011;53568;52.164;4.472;2023-07-28T04:02:58;7.69;;;7.55;;
66669;SDS011;53568;52.164;4.472;2023-07-28T04:05:23;7.28;;;7.16;;
66669;SDS011;53568;52.164;4.472;2023-07-28T04:07:49;7.82;;;7.74;;
66669;SDS011;53568;52.164;4.472;2023-07-28T04:10:14;7.99;;;7.97;;
66669;SDS011;53568;52.164;4.472;2023-07-28T04:12:40;7.85;;;7.78;;
66669;SDS011;53568;52.164;4.472;2023-07-28T04:15:05;7.54;;;7.52;;
66669;SDS011;53568;52.164;4.472;2023-07-28T04:17:31;7.79;;;7.78;;
66669;SDS011;53568;52.164;4.472;2023-07-28T04:19:57;8.27;;;8.23;;
66669;SDS011;53568;52.164;4.472;2023-07-28T04:22:23;8.18;;;8.17;;
66669;SDS011;53568;52.164;4.472;2023-07-28T04:24:48;8.07;;;8.07;;
66669;SDS011;53568;52.164;4.472;2023-07-28T04:27:14;8.03;;;8.02;;
66669;SDS011;53568;52.164;4.472;2023-07-28T04:29:41;8.10;;;8.07;;
66669;SDS011;53568;52.164;4.472;2023-07-28T04:32:06;8.24;;;8.24;;
66669;SDS011;53568;52.164;4.472;2023-07-28T04:34:33;8.33;;;8.33;;
66669;SDS011;53568;52.164;4.472;2023-07-28T04:36:58;8.43;;;8.41;;
66669;SDS011;53568;52.164;4.472;2023-07-28T04:39:24;8.45;;;8.44;;
66669;SDS011;53568;52.164;4.472;2023-07-28T04:41:49;8.21;;;8.20;;
66669;SDS011;53568;52.164;4.472;2023-07-28T04:44:15;8.70;;;8.70;;
66669;SDS011;53568;52.164;4.472;2023-07-28T04:46:42;8.33;;;8.33;;
66669;SDS011;53568;52.164;4.472;2023-07-28T04:49:08;8.29;;;8.28;;
66669;SDS011;53568;52.164;4.472;2023-07-28T04:51:33;8.46;;;8.42;;
66669;SDS011;53568;52.164;4.472;2023-07-28T04:53:59;8.44;;;8.43;;
66669;SDS011;53568;52.164;4.472;2023-07-28T04:56:24;8.96;;;8.92;;
66669;SDS011;53568;52.164;4.472;2023-07-28T04:58:50;8.96;;;8.92;;
66669;SDS011;53568;52.164;4.472;2023-07-28T05:01:15;8.95;;;8.93;;
66669;SDS011;53568;52.164;4.472;2023-07-28T05:03:41;9.44;;;9.44;;
66669;SDS011;53568;52.164;4.472;2023-07-28T05:06:06;8.57;;;8.57;;
66669;SDS011;53568;52.164;4.472;2023-07-28T05:08:32;8.81;;;8.79;;
66669;SDS011;53568;52.164;4.472;2023-07-28T05:10:57;9.09;;;9.08;;
66669;SDS011;53568;52.164;4.472;2023-07-28T05:13:23;8.90;;;8.90;;
66669;SDS011;53568;52.164;4.472;2023-07-28T05:15:48;8.65;;;8.65;;
66669;SDS011;53568;52.164;4.472;2023-07-28T05:18:15;8.47;;;8.47;;
66669;SDS011;53568;52.164;4.472;2023-07-28T05:20:41;8.57;;;8.57;;
66669;SDS011;53568;52.164;4.472;2023-07-28T05:23:06;8.56;;;8.56;;
66669;SDS011;53568;52.164;4.472;2023-07-28T05:25:32;8.70;;;8.70;;
66669;SDS011;53568;52.164;4.472;2023-07-28T05:27:57;8.31;;;8.31;;
66669;SDS011;53568;52.164;4.472;2023-07-28T05:30:23;8.37;;;8.36;;
66669;SDS011;53568;52.164;4.472;2023-07-28T05:32:48;8.07;;;8.07;;
66669;SDS011;53568;52.164;4.472;2023-07-28T05:35:14;8.07;;;8.07;;
66669;SDS011;53568;52.164;4.472;2023-07-28T05:37:41;8.40;;;8.40;;
66669;SDS011;53568;52.164;4.472;2023-07-28T05:40:06;7.88;;;7.88;;
66669;SDS011;53568;52.164;4.472;2023-07-28T05:42:32;8.02;;;8.02;;
66669;SDS011;53568;52.164;4.472;2023-07-28T05:44:58;7.48;;;7.48;;
66669;SDS011;53568;52.164;4.472;2023-07-28T05:47:24;7.71;;;7.71;;
66669;SDS011;53568;52.164;4.472;2023-07-28T05:49:51;7.63;;;7.63;;
66669;SDS011;53568;52.164;4.472;2023-07-28T05:52:19;7.90;;;7.90;;
66669;SDS011;53568;52.164;4.472;2023-07-28T05:54:44;7.72;;;7.68;;
66669;SDS011;53568;52.164;4.472;2023-07-28T05:57:10;7.82;;;7.81;;
66669;SDS011;53568;52.164;4.472;2023-07-28T05:59:36;7.89;;;7.89;;
66669;SDS011;53568;52.164;4.472;2023-07-28T06:02:01;7.19;;;7.19;;
66669;SDS011;53568;52.164;4.472;2023-07-28T06:04:27;7.53;;;7.53;;
66669;SDS011;53568;52.164;4.472;2023-07-28T06:06:53;8.17;;;8.17;;
66669;SDS011;53568;52.164;4.472;2023-07-28T06:09:18;7.84;;;7.84;;
66669;SDS011;53568;52.164;4.472;2023-07-28T06:11:44;8.07;;;8.07;;
66669;SDS011;53568;52.164;4.472;2023-07-28T06:14:09;7.52;;;7.52;;
66669;SDS011;53568;52.164;4.472;2023-07-28T06:16:35;8.07;;;8.07;;
66669;SDS011;53568;52.164;4.472;2023-07-28T06:19:00;7.97;;;7.97;;
66669;SDS011;53568;52.164;4.472;2023-07-28T06:21:26;8.18;;;8.17;;
66669;SDS011;53568;52.164;4.472;2023-07-28T06:23:52;8.01;;;8.01;;
66669;SDS011;53568;52.164;4.472;2023-07-28T06:26:17;8.18;;;8.18;;
66669;SDS011;53568;52.164;4.472;2023-07-28T06:28:43;7.93;;;7.93;;
66669;SDS011;53568;52.164;4.472;2023-07-28T06:31:09;8.17;;;8.17;;
66669;SDS011;53568;52.164;4.472;2023-07-28T06:33:35;8.33;;;8.33;;
66669;SDS011;53568;52.164;4.472;2023-07-28T06:36:02;8.14;;;8.14;;
66669;SDS011;53568;52.164;4.472;2023-07-28T06:38:28;8.54;;;8.54;;
66669;SDS011;53568;52.164;4.472;2023-07-28T06:40:53;8.66;;;8.66;;
66669;SDS011;53568;52.164;4.472;2023-07-28T06:43:20;8.20;;;8.20;;
66669;SDS011;53568;52.164;4.472;2023-07-28T06:45:46;8.48;;;8.48;;
66669;SDS011;53568;52.164;4.472;2023-07-28T06:48:11;8.16;;;8.16;;
66669;SDS011;53568;52.164;4.472;2023-07-28T06:50:37;8.52;;;8.52;;
66669;SDS011;53568;52.164;4.472;2023-07-28T06:53:02;8.06;;;8.06;;
66669;SDS011;53568;52.164;4.472;2023-07-28T06:55:28;8.32;;;8.32;;
66669;SDS011;53568;52.164;4.472;2023-07-28T06:57:53;8.44;;;8.44;;
66669;SDS011;53568;52.164;4.472;2023-07-28T07:00:19;7.95;;;7.95;;
66669;SDS011;53568;52.164;4.472;2023-07-28T07:02:44;8.09;;;8.09;;
66669;SDS011;53568;52.164;4.472;2023-07-28T07:05:10;8.30;;;8.30;;
66669;SDS011;53568;52.164;4.472;2023-07-28T07:07:36;7.71;;;7.71;;
66669;SDS011;53568;52.164;4.472;2023-07-28T07:10:02;7.65;;;7.65;;
66669;SDS011;53568;52.164;4.472;2023-07-28T07:12:28;7.94;;;7.94;;
66669;SDS011;53568;52.164;4.472;2023-07-28T07:14:53;7.83;;;7.83;;
66669;SDS011;53568;52.164;4.472;2023-07-28T07:17:19;7.15;;;7.15;;
66669;SDS011;53568;52.164;4.472;2023-07-28T07:19:45;6.98;;;6.98;;
66669;SDS011;53568;52.164;4.472;2023-07-28T07:22:10;7.38;;;7.38;;
66669;SDS011;53568;52.164;4.472;2023-07-28T07:24:36;7.21;;;7.21;;
66669;SDS011;53568;52.164;4.472;2023-07-28T07:27:01;7.03;;;7.03;;
66669;SDS011;53568;52.164;4.472;2023-07-28T07:29:27;6.67;;;6.67;;
66669;SDS011;53568;52.164;4.472;2023-07-28T07:31:52;6.54;;;6.54;;
66669;SDS011;53568;52.164;4.472;2023-07-28T07:34:21;7.33;;;7.33;;
66669;SDS011;53568;52.164;4.472;2023-07-28T07:36:48;6.34;;;6.34;;
66669;SDS011;53568;52.164;4.472;2023-07-28T07:39:15;6.48;;;6.48;;
66669;SDS011;53568;52.164;4.472;2023-07-28T07:41:40;6.53;;;6.53;;
66669;SDS011;53568;52.164;4.472;2023-07-28T07:44:06;6.47;;;6.47;;
66669;SDS011;53568;52.164;4.472;2023-07-28T07:46:31;6.18;;;6.18;;
66669;SDS011;53568;52.164;4.472;2023-07-28T07:48:57;6.50;;;6.50;;
66669;SDS011;53568;52.164;4.472;2023-07-28T07:51:23;6.36;;;6.36;;
66669;SDS011;53568;52.164;4.472;2023-07-28T07:53:48;6.17;;;6.17;;
66669;SDS011;53568;52.164;4.472;2023-07-28T07:56:14;6.12;;;6.12;;
66669;SDS011;53568;52.164;4.472;2023-07-28T07:58:40;6.29;;;6.29;;
66669;SDS011;53568;52.164;4.472;2023-07-28T08:01:05;6.49;;;6.49;;
66669;SDS011;53568;52.164;4.472;2023-07-28T08:03:31;5.92;;;5.92;;
66669;SDS011;53568;52.164;4.472;2023-07-28T08:05:57;5.87;;;5.87;;
66669;SDS011;53568;52.164;4.472;2023-07-28T08:08:23;6.06;;;6.06;;
66669;SDS011;53568;52.164;4.472;2023-07-28T08:10:49;5.97;;;5.97;;
66669;SDS011;53568;52.164;4.472;2023-07-28T08:13:15;5.69;;;5.69;;
66669;SDS011;53568;52.164;4.472;2023-07-28T08:15:44;5.64;;;5.64;;
66669;SDS011;53568;52.164;4.472;2023-07-28T08:18:11;5.59;;;5.59;;
66669;SDS011;53568;52.164;4.472;2023-07-28T08:20:37;5.24;;;5.24;;
66669;SDS011;53568;52.164;4.472;2023-07-28T08:23:03;5.62;;;5.62;;
66669;SDS011;53568;52.164;4.472;2023-07-28T08:25:29;5.35;;;5.35;;
66669;SDS011;53568;52.164;4.472;2023-07-28T08:27:54;5.44;;;5.44;;
66669;SDS011;53568;52.164;4.472;2023-07-28T08:30:20;5.71;;;5.71;;
66669;SDS011;53568;52.164;4.472;2023-07-28T08:32:46;5.65;;;5.65;;
66669;SDS011;53568;52.164;4.472;2023-07-28T08:35:11;5.52;;;5.52;;
66669;SDS011;53568;52.164;4.472;2023-07-28T08:37:37;5.33;;;5.33;;
66669;SDS011;53568;52.164;4.472;2023-07-28T08:40:03;5.46;;;5.46;;
66669;SDS011;53568;52.164;4.472;2023-07-28T08:42:30;5.47;;;5.47;;
66669;SDS011;53568;52.164;4.472;2023-07-28T08:45:01;5.46;;;5.46;;
66669;SDS011;53568;52.164;4.472;2023-07-28T08:47:29;5.19;;;5.19;;
66669;SDS011;53568;52.164;4.472;2023-07-28T08:49:56;5.21;;;5.21;;
66669;SDS011;53568;52.164;4.472;2023-07-28T08:52:22;5.16;;;5.16;;
66669;SDS011;53568;52.164;4.472;2023-07-28T08:54:49;4.86;;;4.86;;
66669;SDS011;53568;52.164;4.472;2023-07-28T08:57:14;5.16;;;5.16;;
66669;SDS011;53568;52.164;4.472;2023-07-28T08:59:40;5.23;;;5.23;;
66669;SDS011;53568;52.164;4.472;2023-07-28T09:02:13;5.19;;;5.19;;
66669;SDS011;53568;52.164;4.472;2023-07-28T09:04:46;5.14;;;5.14;;
66669;SDS011;53568;52.164;4.472;2023-07-28T09:07:13;5.49;;;5.49;;
66669;SDS011;53568;52.164;4.472;2023-07-28T09:09:39;5.50;;;5.50;;
66669;SDS011;53568;52.164;4.472;2023-07-28T09:12:08;5.35;;;5.35;;
66669;SDS011;53568;52.164;4.472;2023-07-28T09:14:35;5.70;;;5.70;;
66669;SDS011;53568;52.164;4.472;2023-07-28T09:22:17;6.09;;;6.09;;
66669;SDS011;53568;52.164;4.472;2023-07-28T09:24:44;6.42;;;6.42;;
66669;SDS011;53568;52.164;4.472;2023-07-28T09:27:09;5.72;;;5.72;;
66669;SDS011;53568;52.164;4.472;2023-07-28T09:29:52;5.54;;;5.54;;
66669;SDS011;53568;52.164;4.472;2023-07-28T09:32:27;5.49;;;5.49;;
66669;SDS011;53568;52.164;4.472;2023-07-28T09:37:36;5.78;;;5.78;;
66669;SDS011;53568;52.164;4.472;2023-07-28T09:40:04;5.52;;;5.52;;
66669;SDS011;53568;52.164;4.472;2023-07-28T09:42:35;5.37;;;5.37;;
66669;SDS011;53568;52.164;4.472;2023-07-28T09:45:01;5.90;;;5.90;;
66669;SDS011;53568;52.164;4.472;2023-07-28T09:47:27;5.63;;;5.63;;
66669;SDS011;53568;52.164;4.472;2023-07-28T09:49:57;5.95;;;5.95;;
66669;SDS011;53568;52.164;4.472;2023-07-28T09:52:26;5.85;;;5.85;;
66669;SDS011;53568;52.164;4.472;2023-07-28T09:55:00;6.15;;;6.15;;
66669;SDS011;53568;52.164;4.472;2023-07-28T09:57:34;6.32;;;6.32;;
66669;SDS011;53568;52.164;4.472;2023-07-28T10:00:04;6.55;;;6.55;;
66669;SDS011;53568;52.164;4.472;2023-07-28T10:02:33;6.18;;;6.18;;
66669;SDS011;53568;52.164;4.472;2023-07-28T10:05:01;6.10;;;6.10;;
66669;SDS011;53568;52.164;4.472;2023-07-28T10:07:27;6.76;;;6.76;;
66669;SDS011;53568;52.164;4.472;2023-07-28T10:09:54;6.15;;;6.15;;
66669;SDS011;53568;52.164;4.472;2023-07-28T10:12:23;6.25;;;6.25;;
66669;SDS011;53568;52.164;4.472;2023-07-28T10:15:00;6.53;;;6.53;;
66669;SDS011;53568;52.164;4.472;2023-07-28T10:17:34;6.36;;;6.36;;
66669;SDS011;53568;52.164;4.472;2023-07-28T10:20:02;6.29;;;6.29;;
66669;SDS011;53568;52.164;4.472;2023-07-28T10:22:42;6.15;;;6.15;;
66669;SDS011;53568;52.164;4.472;2023-07-28T10:25:10;6.09;;;6.09;;
66669;SDS011;53568;52.164;4.472;2023-07-28T10:27:37;5.94;;;5.94;;
66669;SDS011;53568;52.164;4.472;2023-07-28T10:30:04;6.17;;;6.17;;
66669;SDS011;53568;52.164;4.472;2023-07-28T10:32:37;5.91;;;5.91;;
66669;SDS011;53568;52.164;4.472;2023-07-28T10:35:09;5.93;;;5.93;;
66669;SDS011;53568;52.164;4.472;2023-07-28T10:37:48;5.45;;;5.45;;
66669;SDS011;53568;52.164;4.472;2023-07-28T10:42:53;4.92;;;4.92;;
66669;SDS011;53568;52.164;4.472;2023-07-28T10:45:20;4.89;;;4.89;;
66669;SDS011;53568;52.164;4.472;2023-07-28T10:47:48;4.95;;;4.95;;
66669;SDS011;53568;52.164;4.472;2023-07-28T10:50:14;4.82;;;4.82;;
66669;SDS011;53568;52.164;4.472;2023-07-28T10:52:43;4.95;;;4.95;;
66669;SDS011;53568;52.164;4.472;2023-07-28T10:55:17;5.25;;;5.25;;
66669;SDS011;53568;52.164;4.472;2023-07-28T10:57:48;5.29;;;5.29;;
66669;SDS011;53568;52.164;4.472;2023-07-28T11:00:16;5.60;;;5.59;;
66669;SDS011;53568;52.164;4.472;2023-07-28T11:02:50;5.27;;;5.27;;
66669;SDS011;53568;52.164;4.472;2023-07-28T11:05:22;5.29;;;5.29;;
66669;SDS011;53568;52.164;4.472;2023-07-28T11:07:59;5.13;;;5.13;;
66669;SDS011;53568;52.164;4.472;2023-07-28T11:10:30;5.31;;;5.31;;
66669;SDS011;53568;52.164;4.472;2023-07-28T11:12:57;5.25;;;5.25;;
66669;SDS011;53568;52.164;4.472;2023-07-28T11:15:25;4.77;;;4.77;;
66669;SDS011;53568;52.164;4.472;2023-07-28T11:17:51;5.07;;;5.07;;
66669;SDS011;53568;52.164;4.472;2023-07-28T11:20:18;4.50;;;4.50;;
66669;SDS011;53568;52.164;4.472;2023-07-28T11:22:46;4.89;;;4.89;;
66669;SDS011;53568;52.164;4.472;2023-07-28T11:25:24;4.57;;;4.57;;
66669;SDS011;53568;52.164;4.472;2023-07-28T11:27:52;5.08;;;5.08;;
66669;SDS011;53568;52.164;4.472;2023-07-28T11:30:18;4.89;;;4.89;;
66669;SDS011;53568;52.164;4.472;2023-07-28T11:32:49;4.89;;;4.89;;
66669;SDS011;53568;52.164;4.472;2023-07-28T11:35:16;5.00;;;5.00;;
66669;SDS011;53568;52.164;4.472;2023-07-28T11:37:45;4.84;;;4.84;;
66669;SDS011;53568;52.164;4.472;2023-07-28T11:40:14;4.90;;;4.90;;
66669;SDS011;53568;52.164;4.472;2023-07-28T11:42:46;4.98;;;4.98;;
66669;SDS011;53568;52.164;4.472;2023-07-28T11:45:14;4.70;;;4.70;;
66669;SDS011;53568;52.164;4.472;2023-07-28T11:48:00;5.08;;;5.08;;
66669;SDS011;53568;52.164;4.472;2023-07-28T11:50:38;4.82;;;4.82;;
66669;SDS011;53568;52.164;4.472;2023-07-28T11:53:05;4.98;;;4.98;;
66669;SDS011;53568;52.164;4.472;2023-07-28T11:55:32;4.67;;;4.67;;
66669;SDS011;53568;52.164;4.472;2023-07-28T11:58:00;4.88;;;4.88;;
66669;SDS011;53568;52.164;4.472;2023-07-28T12:00:33;4.46;;;4.46;;
66669;SDS011;53568;52.164;4.472;2023-07-28T12:03:07;4.72;;;4.72;;
66669;SDS011;53568;52.164;4.472;2023-07-28T12:05:35;4.39;;;4.39;;
66669;SDS011;53568;52.164;4.472;2023-07-28T12:08:02;4.25;;;4.25;;
66669;SDS011;53568;52.164;4.472;2023-07-28T12:10:33;4.34;;;4.34;;
66669;SDS011;53568;52.164;4.472;2023-07-28T12:13:08;4.42;;;4.42;;
66669;SDS011;53568;52.164;4.472;2023-07-28T12:15:34;4.53;;;4.53;;
66669;SDS011;53568;52.164;4.472;2023-07-28T12:18:09;4.48;;;4.48;;
66669;SDS011;53568;52.164;4.472;2023-07-28T12:20:40;4.55;;;4.55;;
66669;SDS011;53568;52.164;4.472;2023-07-28T12:23:11;4.28;;;4.28;;
66669;SDS011;53568;52.164;4.472;2023-07-28T12:25:39;4.39;;;4.39;;
66669;SDS011;53568;52.164;4.472;2023-07-28T12:28:05;4.41;;;4.41;;
66669;SDS011;53568;52.164;4.472;2023-07-28T12:30:31;4.40;;;4.40;;
66669;SDS011;53568;52.164;4.472;2023-07-28T12:32:58;4.53;;;4.53;;
66669;SDS011;53568;52.164;4.472;2023-07-28T12:35:24;4.52;;;4.52;;
66669;SDS011;53568;52.164;4.472;2023-07-28T12:37:52;4.75;;;4.75;;
66669;SDS011;53568;52.164;4.472;2023-07-28T12:40:18;4.96;;;4.96;;
66669;SDS011;53568;52.164;4.472;2023-07-28T12:42:46;4.72;;;4.72;;
66669;SDS011;53568;52.164;4.472;2023-07-28T12:45:13;4.51;;;4.49;;
66669;SDS011;53568;52.164;4.472;2023-07-28T12:47:40;4.82;;;4.82;;
66669;SDS011;53568;52.164;4.472;2023-07-28T12:50:08;4.79;;;4.79;;
66669;SDS011;53568;52.164;4.472;2023-07-28T12:52:35;4.79;;;4.79;;
66669;SDS011;53568;52.164;4.472;2023-07-28T12:55:01;5.11;;;5.11;;
66669;SDS011;53568;52.164;4.472;2023-07-28T12:57:27;5.03;;;5.03;;
66669;SDS011;53568;52.164;4.472;2023-07-28T12:59:53;5.14;;;5.14;;
66669;SDS011;53568;52.164;4.472;2023-07-28T13:02:18;4.67;;;4.67;;
66669;SDS011;53568;52.164;4.472;2023-07-28T13:04:44;4.63;;;4.63;;
66669;SDS011;53568;52.164;4.472;2023-07-28T13:07:09;4.60;;;4.60;;
66669;SDS011;53568;52.164;4.472;2023-07-28T13:09:35;4.27;;;4.27;;
66669;SDS011;53568;52.164;4.472;2023-07-28T13:12:00;4.12;;;4.12;;
66669;SDS011;53568;52.164;4.472;2023-07-28T13:14:26;3.95;;;3.95;;
66669;SDS011;53568;52.164;4.472;2023-07-28T13:16:51;4.07;;;4.07;;
66669;SDS011;53568;52.164;4.472;2023-07-28T13:19:17;3.75;;;3.75;;
66669;SDS011;53568;52.164;4.472;2023-07-28T13:21:42;3.82;;;3.82;;
66669;SDS011;53568;52.164;4.472;2023-07-28T13:24:08;3.82;;;3.82;;
66669;SDS011;53568;52.164;4.472;2023-07-28T13:26:33;3.87;;;3.87;;
66669;SDS011;53568;52.164;4.472;2023-07-28T13:28:59;3.83;;;3.83;;
66669;SDS011;53568;52.164;4.472;2023-07-28T13:31:27;4.03;;;4.03;;
66669;SDS011;53568;52.164;4.472;2023-07-28T13:33:53;3.68;;;3.68;;
66669;SDS011;53568;52.164;4.472;2023-07-28T13:36:19;3.84;;;3.84;;
66669;SDS011;53568;52.164;4.472;2023-07-28T13:38:44;4.08;;;4.08;;
66669;SDS011;53568;52.164;4.472;2023-07-28T13:41:11;3.95;;;3.95;;
66669;SDS011;53568;52.164;4.472;2023-07-28T13:43:36;3.95;;;3.95;;
66669;SDS011;53568;52.164;4.472;2023-07-28T13:46:06;3.77;;;3.77;;
66669;SDS011;53568;52.164;4.472;2023-07-28T13:48:32;3.84;;;3.84;;
66669;SDS011;53568;52.164;4.472;2023-07-28T13:50:58;4.07;;;4.07;;
66669;SDS011;53568;52.164;4.472;2023-07-28T13:53:24;3.47;;;3.47;;
66669;SDS011;53568;52.164;4.472;2023-07-28T13:55:50;3.23;;;3.23;;
66669;SDS011;53568;52.164;4.472;2023-07-28T13:58:16;3.28;;;3.28;;
66669;SDS011;53568;52.164;4.472;2023-07-28T14:00:41;3.54;;;3.54;;
66669;SDS011;53568;52.164;4.472;2023-07-28T14:03:07;3.41;;;3.41;;
66669;SDS011;53568;52.164;4.472;2023-07-28T14:05:32;3.48;;;3.48;;
66669;SDS011;53568;52.164;4.472;2023-07-28T14:07:58;3.64;;;3.64;;
66669;SDS011;53568;52.164;4.472;2023-07-28T14:10:24;3.41;;;3.41;;
66669;SDS011;53568;52.164;4.472;2023-07-28T14:12:49;3.08;;;3.08;;
66669;SDS011;53568;52.164;4.472;2023-07-28T14:15:15;2.75;;;2.75;;
66669;SDS011;53568;52.164;4.472;2023-07-28T14:17:40;2.35;;;2.35;;
66669;SDS011;53568;52.164;4.472;2023-07-28T14:20:06;2.04;;;2.04;;
66669;SDS011;53568;52.164;4.472;2023-07-28T14:22:33;1.74;;;1.74;;
66669;SDS011;53568;52.164;4.472;2023-07-28T14:24:59;1.58;;;1.58;;
66669;SDS011;53568;52.164;4.472;2023-07-28T14:27:24;1.75;;;1.75;;
66669;SDS011;53568;52.164;4.472;2023-07-28T14:29:50;1.64;;;1.64;;
66669;SDS011;53568;52.164;4.472;2023-07-28T14:32:15;1.58;;;1.58;;
66669;SDS011;53568;52.164;4.472;2023-07-28T14:34:41;1.67;;;1.67;;
66669;SDS011;53568;52.164;4.472;2023-07-28T14:37:06;1.65;;;1.65;;
66669;SDS011;53568;52.164;4.472;2023-07-28T14:39:32;1.49;;;1.49;;
66669;SDS011;53568;52.164;4.472;2023-07-28T14:41:57;1.50;;;1.50;;
66669;SDS011;53568;52.164;4.472;2023-07-28T14:44:23;1.54;;;1.54;;
66669;SDS011;53568;52.164;4.472;2023-07-28T14:46:48;1.65;;;1.65;;
66669;SDS011;53568;52.164;4.472;2023-07-28T14:49:14;1.66;;;1.66;;
66669;SDS011;53568;52.164;4.472;2023-07-28T14:51:39;1.77;;;1.77;;
66669;SDS011;53568;52.164;4.472;2023-07-28T14:54:05;1.59;;;1.59;;
66669;SDS011;53568;52.164;4.472;2023-07-28T14:56:31;1.59;;;1.59;;
66669;SDS011;53568;52.164;4.472;2023-07-28T14:58:57;2.47;;;2.47;;
66669;SDS011;53568;52.164;4.472;2023-07-28T15:01:25;3.26;;;3.26;;